createdAt,value
2022-11-12T00:02:00.697Z,9.55
2022-11-12T00:04:46.567Z,9.65
2022-11-12T00:07:32.469Z,9.15
2022-11-12T00:10:18.303Z,9.51
2022-11-12T00:13:04.257Z,9.60
2022-11-12T00:15:50.219Z,9.93
2022-11-12T00:18:36.116Z,9.96
2022-11-12T00:21:21.930Z,10.07
2022-11-12T00:24:07.612Z,10.09
2022-11-12T00:26:53.351Z,9.89
2022-11-12T00:29:39.030Z,10.07
2022-11-12T00:32:25.045Z,10.05
2022-11-12T00:35:14.024Z,10.01
2022-11-12T00:38:01.032Z,9.82
2022-11-12T00:40:47.196Z,9.72
2022-11-12T00:43:33.193Z,10.07
2022-11-12T00:46:19.176Z,9.81
2022-11-12T00:49:04.850Z,10.08
2022-11-12T00:51:50.697Z,10.07
2022-11-12T00:54:36.302Z,10.35
2022-11-12T00:57:22.235Z,9.95
2022-11-12T01:00:08.813Z,9.69
2022-11-12T01:02:54.422Z,10.04
2022-11-12T01:05:40.266Z,9.82
2022-11-12T01:08:26.465Z,10.22
2022-11-12T01:11:16.240Z,10.51
2022-11-12T01:14:05.470Z,10.56
2022-11-12T01:16:51.388Z,10.11
2022-11-12T01:19:37.166Z,10.47
2022-11-12T01:22:23.453Z,10.58
2022-11-12T01:25:09.259Z,10.39
2022-11-12T01:27:54.936Z,10.45
2022-11-12T01:30:40.672Z,10.45
2022-11-12T01:33:26.708Z,10.06
2022-11-12T01:36:14.694Z,10.00
2022-11-12T01:39:00.836Z,9.94
2022-11-12T01:41:46.988Z,10.12
2022-11-12T01:44:35.042Z,10.10
2022-11-12T01:47:33.216Z,9.69
2022-11-12T01:50:31.460Z,9.98
2022-11-12T01:53:17.630Z,9.81
2022-11-12T01:56:04.982Z,10.20
2022-11-12T01:58:55.801Z,10.14
2022-11-12T02:01:42.210Z,9.66
2022-11-12T02:04:28.482Z,10.21
2022-11-12T02:07:14.688Z,9.10
2022-11-12T02:10:02.356Z,9.95
2022-11-12T02:13:08.431Z,10.04
2022-11-12T02:15:54.278Z,10.53
2022-11-12T02:18:40.173Z,10.73
2022-11-12T02:21:27.113Z,10.56
2022-11-12T02:24:12.745Z,10.51
2022-11-12T02:26:58.589Z,10.43
2022-11-12T02:29:47.520Z,9.97
2022-11-12T02:32:33.204Z,10.14
2022-11-12T02:35:19.177Z,10.00
2022-11-12T02:38:05.776Z,9.53
2022-11-12T02:40:51.982Z,9.45
2022-11-12T02:43:37.999Z,9.21
2022-11-12T02:46:23.868Z,9.64
2022-11-12T02:49:09.790Z,9.60
2022-11-12T02:51:55.748Z,9.48
2022-11-12T02:54:41.315Z,9.72
2022-11-12T02:57:27.363Z,9.52
2022-11-12T03:00:13.997Z,9.36
2022-11-12T03:02:59.924Z,8.92
2022-11-12T03:05:46.451Z,8.74
2022-11-12T03:08:32.273Z,9.02
2022-11-12T03:11:18.421Z,9.13
2022-11-12T03:14:04.956Z,9.34
2022-11-12T03:16:50.982Z,9.31
2022-11-12T03:19:36.633Z,9.16
2022-11-12T03:22:22.391Z,9.09
2022-11-12T03:25:09.277Z,8.90
2022-11-12T03:28:04.440Z,9.01
2022-11-12T03:30:50.318Z,8.88
2022-11-12T03:33:36.292Z,8.84
2022-11-12T03:36:22.044Z,9.02
2022-11-12T03:39:07.969Z,9.35
2022-11-12T03:41:54.062Z,8.93
2022-11-12T03:44:39.770Z,9.58
2022-11-12T03:47:25.517Z,8.94
2022-11-12T03:50:13.017Z,8.71
2022-11-12T03:52:59.756Z,9.52
2022-11-12T03:55:45.963Z,9.51
2022-11-12T03:58:32.147Z,8.66
2022-11-12T04:01:17.912Z,9.26
2022-11-12T04:04:04.301Z,9.12
2022-11-12T04:07:08.334Z,9.10
2022-11-12T04:09:54.269Z,9.31
2022-11-12T04:12:58.605Z,8.98
2022-11-12T04:15:44.510Z,9.00
2022-11-12T04:18:48.643Z,9.35
2022-11-12T04:21:56.529Z,9.58
2022-11-12T04:25:01.304Z,9.25
2022-11-12T04:27:47.333Z,9.00
2022-11-12T04:30:33.178Z,8.77
2022-11-12T04:33:18.907Z,9.23
2022-11-12T04:36:05.040Z,9.40
2022-11-12T04:38:50.631Z,9.23
2022-11-12T04:41:54.730Z,9.08
2022-11-12T04:45:00.907Z,8.36
2022-11-12T04:47:46.668Z,8.45
2022-11-12T04:50:32.303Z,8.25
2022-11-12T04:53:18.019Z,8.23
2022-11-12T04:56:04.176Z,8.59
2022-11-12T04:58:50.093Z,8.80
2022-11-12T05:01:35.906Z,8.82
2022-11-12T05:04:22.074Z,8.28
2022-11-12T05:07:07.865Z,8.07
2022-11-12T05:09:54.065Z,7.63
2022-11-12T05:12:39.867Z,7.58
2022-11-12T05:15:26.060Z,7.23
2022-11-12T05:18:12.037Z,7.69
2022-11-12T05:20:57.897Z,8.13
2022-11-12T05:23:43.620Z,8.08
2022-11-12T05:26:30.457Z,7.69
2022-11-12T05:29:16.589Z,7.81
2022-11-12T05:32:02.422Z,7.46
2022-11-12T05:34:48.321Z,7.47
2022-11-12T05:37:34.283Z,7.79
2022-11-12T05:40:20.333Z,8.13
2022-11-12T05:43:05.956Z,8.24
2022-11-12T05:45:51.589Z,8.19
2022-11-12T05:48:37.327Z,7.81
2022-11-12T05:51:23.283Z,7.84
2022-11-12T05:54:09.238Z,7.78
2022-11-12T05:56:54.843Z,7.45
2022-11-12T05:59:40.851Z,7.30
2022-11-12T06:02:26.487Z,7.68
2022-11-12T06:05:12.592Z,7.49
2022-11-12T06:07:58.434Z,7.75
2022-11-12T06:10:49.226Z,7.88
2022-11-12T06:13:34.888Z,8.03
2022-11-12T06:16:20.689Z,8.22
2022-11-12T06:19:06.404Z,7.82
2022-11-12T06:21:52.149Z,7.55
2022-11-12T06:24:38.282Z,7.63
2022-11-12T06:27:24.319Z,7.43
2022-11-12T06:30:10.733Z,7.42
2022-11-12T06:32:56.709Z,7.46
2022-11-12T06:35:43.299Z,7.70
2022-11-12T06:38:30.693Z,8.00
2022-11-12T06:41:16.737Z,7.77
2022-11-12T06:44:04.684Z,7.93
2022-11-12T06:46:51.094Z,7.76
2022-11-12T06:49:37.259Z,8.14
2022-11-12T06:52:23.178Z,8.16
2022-11-12T06:55:09.213Z,7.93
2022-11-12T06:57:55.134Z,8.30
2022-11-12T07:00:41.189Z,8.10
2022-11-12T07:03:26.871Z,8.56
2022-11-12T07:06:15.128Z,8.32
2022-11-12T07:09:00.851Z,8.32
2022-11-12T07:11:46.751Z,8.42
2022-11-12T07:14:32.312Z,8.88
2022-11-12T07:17:18.257Z,8.46
2022-11-12T07:20:04.386Z,7.81
2022-11-12T07:22:50.129Z,7.85
2022-11-12T07:25:35.886Z,8.17
2022-11-12T07:28:21.524Z,7.85
2022-11-12T07:31:09.804Z,8.31
2022-11-12T07:33:55.719Z,8.72
2022-11-12T07:36:41.643Z,9.08
2022-11-12T07:39:27.617Z,9.25
2022-11-12T07:42:13.363Z,9.74
2022-11-12T07:44:59.103Z,10.00
2022-11-12T07:47:44.894Z,10.14
2022-11-12T07:50:30.615Z,10.13
2022-11-12T07:53:16.351Z,10.49
2022-11-12T07:56:04.502Z,10.51
2022-11-12T07:58:53.449Z,10.95
2022-11-12T08:01:40.820Z,11.50
2022-11-12T08:04:26.886Z,11.65
2022-11-12T08:07:12.912Z,12.14
2022-11-12T08:09:59.129Z,10.94
2022-11-12T08:12:44.942Z,11.87
2022-11-12T08:15:30.741Z,12.09
2022-11-12T08:18:16.700Z,12.51
2022-11-12T08:21:04.237Z,11.72
2022-11-12T08:23:50.178Z,12.39
2022-11-12T08:26:36.170Z,12.27
2022-11-12T08:29:23.329Z,12.79
2022-11-12T08:32:09.192Z,12.57
2022-11-12T08:34:54.966Z,12.29
2022-11-12T08:37:40.825Z,12.47
2022-11-12T08:40:27.799Z,12.17
2022-11-12T08:43:13.839Z,12.40
2022-11-12T08:46:00.473Z,11.95
2022-11-12T08:48:47.653Z,11.74
2022-11-12T08:51:33.288Z,11.68
2022-11-12T08:54:18.952Z,11.55
2022-11-12T08:57:05.126Z,11.45
2022-11-12T08:59:50.917Z,11.52
2022-11-12T09:02:36.747Z,11.34
2022-11-12T09:05:22.839Z,11.32
2022-11-12T09:08:14.072Z,11.75
2022-11-12T09:10:59.953Z,11.64
2022-11-12T09:13:45.761Z,11.63
2022-11-12T09:16:32.135Z,11.15
2022-11-12T09:19:17.820Z,11.24
2022-11-12T09:22:04.213Z,11.05
2022-11-12T09:24:50.332Z,11.47
2022-11-12T09:27:36.204Z,11.14
2022-11-12T09:30:22.681Z,11.30
2022-11-12T09:33:09.035Z,11.23
2022-11-12T09:35:55.025Z,10.82
2022-11-12T09:38:41.115Z,11.27
2022-11-12T09:41:32.463Z,11.48
2022-11-12T09:44:20.823Z,11.29
2022-11-12T09:47:24.713Z,11.09
2022-11-12T09:50:18.881Z,11.26
2022-11-12T09:53:19.457Z,11.46
2022-11-12T09:56:08.309Z,11.53
2022-11-12T09:58:54.182Z,11.59
2022-11-12T10:02:00.165Z,11.17
2022-11-12T10:05:17.401Z,11.41
2022-11-12T10:08:39.719Z,11.66
2022-11-12T10:12:04.632Z,11.21
2022-11-12T10:15:36.898Z,11.27
2022-11-12T10:18:32.370Z,11.87
2022-11-12T10:21:24.364Z,11.66
2022-11-12T10:24:11.134Z,12.51
2022-11-12T10:26:58.552Z,12.96
2022-11-12T10:29:53.551Z,12.77
2022-11-12T10:32:43.010Z,12.82
2022-11-12T10:35:31.370Z,12.85
2022-11-12T10:38:22.468Z,12.58
2022-11-12T10:41:20.517Z,13.26
2022-11-12T10:44:07.348Z,13.12
2022-11-12T10:47:18.518Z,13.19
2022-11-12T10:50:10.996Z,12.22
2022-11-12T10:53:01.032Z,12.69
2022-11-12T10:55:58.509Z,13.78
2022-11-12T10:58:44.453Z,13.69
2022-11-12T11:01:35.422Z,13.42
2022-11-12T11:04:31.613Z,14.02
2022-11-12T11:07:22.173Z,13.90
2022-11-12T11:10:27.155Z,13.68
2022-11-12T11:13:23.044Z,13.65
2022-11-12T11:16:13.038Z,14.68
2022-11-12T11:19:09.365Z,13.37
2022-11-12T11:22:04.510Z,14.29
2022-11-12T11:24:59.897Z,14.49
2022-11-12T11:28:08.730Z,15.17
2022-11-12T11:31:02.175Z,14.82
2022-11-12T11:34:08.815Z,15.29
2022-11-12T11:37:20.683Z,15.06
2022-11-12T11:40:12.449Z,14.79
2022-11-12T11:43:22.700Z,14.95
2022-11-12T11:46:17.450Z,15.32
2022-11-12T11:49:17.252Z,14.51
2022-11-12T11:52:34.443Z,15.10
2022-11-12T11:55:42.539Z,15.52
2022-11-12T11:58:53.916Z,14.66
2022-11-12T12:01:58.289Z,14.94
2022-11-12T12:04:52.211Z,15.36
2022-11-12T12:07:49.318Z,15.15
2022-11-12T12:11:07.485Z,15.18
2022-11-12T12:14:15.694Z,15.79
2022-11-12T12:17:17.767Z,15.79
2022-11-12T12:20:14.541Z,15.99
2022-11-12T12:23:05.113Z,16.33
2022-11-12T12:25:57.385Z,15.50
2022-11-12T12:29:12.474Z,15.11
2022-11-12T12:32:24.102Z,16.07
2022-11-12T12:35:21.827Z,15.81
2022-11-12T12:38:18.945Z,14.93
2022-11-12T12:41:28.045Z,15.66
2022-11-12T12:44:13.810Z,15.08
2022-11-12T12:47:01.026Z,14.70
2022-11-12T12:49:47.981Z,14.75
2022-11-12T12:53:00.261Z,14.80
2022-11-12T12:55:50.314Z,14.76
2022-11-12T12:58:48.671Z,15.23
2022-11-12T13:01:35.800Z,15.13
2022-11-12T13:04:52.554Z,15.54
2022-11-12T13:07:40.938Z,14.14
2022-11-12T13:10:41.771Z,14.40
2022-11-12T13:13:32.425Z,14.14
2022-11-12T13:16:47.882Z,14.40
2022-11-12T13:19:39.392Z,14.65
2022-11-12T13:22:24.936Z,14.69
2022-11-12T13:25:10.967Z,14.76
2022-11-12T13:28:02.840Z,14.93
2022-11-12T13:30:48.264Z,15.18
2022-11-12T13:33:35.756Z,15.47
2022-11-12T13:36:27.248Z,15.49
2022-11-12T13:39:19.104Z,14.96
2022-11-12T13:42:32.180Z,14.80
2022-11-12T13:45:26.505Z,14.85
2022-11-12T13:48:20.505Z,15.14
2022-11-12T13:51:13.252Z,15.29
2022-11-12T13:53:59.059Z,14.97
2022-11-12T13:56:45.065Z,15.22
2022-11-12T13:59:31.064Z,15.19
2022-11-12T14:02:20.926Z,15.25
2022-11-12T14:05:18.857Z,15.09
2022-11-12T14:08:23.960Z,14.80
2022-11-12T14:11:28.392Z,14.63
2022-11-12T14:14:55.503Z,14.65
2022-11-12T14:18:13.335Z,15.29
2022-11-12T14:21:05.404Z,14.98
2022-11-12T14:23:51.082Z,15.13
2022-11-12T14:26:43.378Z,14.81
2022-11-12T14:29:34.592Z,14.69
2022-11-12T14:32:21.318Z,14.76
2022-11-12T14:35:23.084Z,14.40
2022-11-12T14:38:14.457Z,14.70
2022-11-12T14:41:20.448Z,14.33
2022-11-12T14:44:13.894Z,13.76
2022-11-12T14:47:00.499Z,13.61
2022-11-12T14:49:48.192Z,14.26
2022-11-12T14:52:42.033Z,14.23
2022-11-12T14:55:32.663Z,14.45
2022-11-12T14:58:19.642Z,14.54
2022-11-12T15:01:55.683Z,14.15
2022-11-12T15:04:26.188Z,13.88
2022-11-12T15:07:34.282Z,13.66
2022-11-12T15:10:32.589Z,13.92
2022-11-12T15:13:20.185Z,14.03
2022-11-12T15:16:07.501Z,13.58
2022-11-12T15:19:15.553Z,13.58
2022-11-12T15:22:02.975Z,14.11
2022-11-12T15:24:49.676Z,13.82
2022-11-12T15:27:41.218Z,13.63
2022-11-12T15:30:31.921Z,13.57
2022-11-12T15:33:21.999Z,13.45
2022-11-12T15:36:18.934Z,13.57
2022-11-12T15:39:12.431Z,13.26
2022-11-12T15:42:03.680Z,13.65
2022-11-12T15:44:50.030Z,13.60
2022-11-12T15:47:35.775Z,13.73
2022-11-12T15:50:25.182Z,13.07
2022-11-12T15:53:11.097Z,13.09
2022-11-12T15:55:57.092Z,13.55
2022-11-12T15:58:42.856Z,13.57
2022-11-12T16:01:29.111Z,13.39
2022-11-12T16:04:15.152Z,12.80
2022-11-12T16:07:00.771Z,13.45
2022-11-12T16:09:47.152Z,13.28
2022-11-12T16:12:32.843Z,13.47
2022-11-12T16:15:20.683Z,13.60
2022-11-12T16:18:10.056Z,13.72
2022-11-12T16:20:56.098Z,13.20
2022-11-12T16:23:41.768Z,13.11
2022-11-12T16:26:29.357Z,12.84
2022-11-12T16:29:15.354Z,13.16
2022-11-12T16:32:02.098Z,13.52
2022-11-12T16:34:47.785Z,13.81
2022-11-12T16:37:33.761Z,13.84
2022-11-12T16:40:23.391Z,13.51
2022-11-12T16:43:09.133Z,13.34
2022-11-12T16:45:55.080Z,13.09
2022-11-12T16:48:40.588Z,13.29
2022-11-12T16:51:26.403Z,13.13
2022-11-12T16:54:12.556Z,13.17
2022-11-12T16:56:58.414Z,13.23
2022-11-12T16:59:45.174Z,13.71
2022-11-12T17:02:31.476Z,13.32
2022-11-12T17:05:24.913Z,12.86
2022-11-12T17:08:11.082Z,12.92
2022-11-12T17:10:57.032Z,13.24
2022-11-12T17:13:43.580Z,13.21
2022-11-12T17:16:29.959Z,13.21
2022-11-12T17:19:15.902Z,12.93
2022-11-12T17:22:01.557Z,12.95
2022-11-12T17:24:47.280Z,13.04
2022-11-12T17:27:33.384Z,12.76
2022-11-12T17:30:19.204Z,12.87
2022-11-12T17:33:05.226Z,12.61
2022-11-12T17:35:51.586Z,12.85
2022-11-12T17:38:38.522Z,13.07
2022-11-12T17:41:26.396Z,12.78
2022-11-12T17:44:17.264Z,12.86
2022-11-12T17:47:03.219Z,12.72
2022-11-12T17:49:49.318Z,12.49
2022-11-12T17:52:35.502Z,12.34
2022-11-12T17:55:21.564Z,12.55
2022-11-12T17:58:08.335Z,12.58
2022-11-12T18:00:54.538Z,12.39
2022-11-12T18:03:42.453Z,12.18
2022-11-12T18:06:32.232Z,12.22
2022-11-12T18:09:19.000Z,12.44
2022-11-12T18:12:05.569Z,12.14
2022-11-12T18:14:51.421Z,12.36
2022-11-12T18:17:37.557Z,12.26
2022-11-12T18:20:23.814Z,12.07
2022-11-12T18:23:11.001Z,11.97
2022-11-12T18:25:56.948Z,11.98
2022-11-12T18:28:42.951Z,12.46
2022-11-12T18:31:29.357Z,12.63
2022-11-12T18:34:15.730Z,12.00
2022-11-12T18:37:02.304Z,12.72
2022-11-12T18:39:48.573Z,12.19
2022-11-12T18:42:34.700Z,11.62
2022-11-12T18:45:21.161Z,11.69
2022-11-12T18:48:07.629Z,12.51
2022-11-12T18:51:01.349Z,12.33
2022-11-12T18:53:48.948Z,11.66
2022-11-12T18:56:38.310Z,11.88
2022-11-12T18:59:30.486Z,11.98
2022-11-12T19:02:16.688Z,11.68
2022-11-12T19:05:03.910Z,11.58
2022-11-12T19:07:50.199Z,11.71
2022-11-12T19:10:37.252Z,12.04
2022-11-12T19:13:23.417Z,12.40
2022-11-12T19:16:11.902Z,12.26
2022-11-12T19:18:57.713Z,12.22
2022-11-12T19:21:43.697Z,12.43
2022-11-12T19:24:30.713Z,12.41
2022-11-12T19:27:16.460Z,12.49
2022-11-12T19:30:03.565Z,12.32
2022-11-12T19:32:49.859Z,12.58
2022-11-12T19:35:35.880Z,12.11
2022-11-12T19:38:21.882Z,12.08
2022-11-12T19:41:18.800Z,12.16
2022-11-12T19:44:06.103Z,11.99
2022-11-12T19:46:52.598Z,12.11
2022-11-12T19:49:38.410Z,12.26
2022-11-12T19:52:24.532Z,12.14
2022-11-12T19:55:10.398Z,12.08
2022-11-12T19:57:56.498Z,12.16
2022-11-12T20:00:43.088Z,12.13
2022-11-12T20:03:30.081Z,11.90
2022-11-12T20:06:18.832Z,11.77
2022-11-12T20:09:05.045Z,11.67
2022-11-12T20:11:51.191Z,11.63
2022-11-12T20:14:37.196Z,11.67
2022-11-12T20:17:23.407Z,11.94
2022-11-12T20:20:10.430Z,12.06
2022-11-12T20:22:57.487Z,11.78
2022-11-12T20:25:43.404Z,12.05
2022-11-12T20:28:29.938Z,12.20
2022-11-12T20:31:21.392Z,12.00
2022-11-12T20:34:07.876Z,12.06
2022-11-12T20:36:54.871Z,12.31
2022-11-12T20:39:40.812Z,11.77
2022-11-12T20:42:27.066Z,11.56
2022-11-12T20:45:12.940Z,11.70
2022-11-12T20:47:59.275Z,12.22
2022-11-12T20:51:09.425Z,12.19
2022-11-12T20:53:58.975Z,12.11
2022-11-12T20:56:46.495Z,12.21
2022-11-12T20:59:32.134Z,12.04
2022-11-12T21:02:18.284Z,12.21
2022-11-12T21:05:04.871Z,12.13
2022-11-12T21:07:50.987Z,11.96
2022-11-12T21:10:37.333Z,11.54
2022-11-12T21:13:24.249Z,11.48
2022-11-12T21:16:11.587Z,11.38
2022-11-12T21:19:01.806Z,11.00
2022-11-12T21:21:47.860Z,11.22
2022-11-12T21:24:33.606Z,11.46
2022-11-12T21:27:20.577Z,11.09
2022-11-12T21:30:07.491Z,11.00
2022-11-12T21:32:53.702Z,11.15
2022-11-12T21:35:40.174Z,10.99
2022-11-12T21:38:27.619Z,11.16
2022-11-12T21:41:17.526Z,10.90
2022-11-12T21:44:03.563Z,10.66
2022-11-12T21:46:49.234Z,10.74
2022-11-12T21:49:35.172Z,10.68
2022-11-12T21:52:20.861Z,10.60
2022-11-12T21:55:07.128Z,11.07
2022-11-12T21:57:52.782Z,11.00
2022-11-12T22:00:42.726Z,10.12
2022-11-12T22:03:32.288Z,9.92
2022-11-12T22:06:19.241Z,9.88
2022-11-12T22:09:06.079Z,10.05
2022-11-12T22:11:52.081Z,10.14
2022-11-12T22:14:38.065Z,10.44
2022-11-12T22:17:23.663Z,10.57
2022-11-12T22:20:09.755Z,10.19
2022-11-12T22:22:55.657Z,9.94
2022-11-12T22:25:41.495Z,9.33
2022-11-12T22:28:27.957Z,9.15
2022-11-12T22:31:16.645Z,9.16
2022-11-12T22:34:02.819Z,9.19
2022-11-12T22:36:48.756Z,9.13
2022-11-12T22:39:34.339Z,9.28
2022-11-12T22:42:20.063Z,9.10
2022-11-12T22:45:06.370Z,9.10
2022-11-12T22:47:52.311Z,9.59
2022-11-12T22:50:38.011Z,9.50
2022-11-12T22:53:24.151Z,9.62
2022-11-12T22:56:15.078Z,9.73
2022-11-12T22:59:03.486Z,9.43
2022-11-12T23:01:49.540Z,9.30
2022-11-12T23:04:35.472Z,9.31
2022-11-12T23:07:21.181Z,8.67
2022-11-12T23:10:07.739Z,8.28
2022-11-12T23:12:53.503Z,8.35
2022-11-12T23:15:42.727Z,8.26
2022-11-12T23:18:28.794Z,8.82
2022-11-12T23:21:17.191Z,8.66
2022-11-12T23:24:02.756Z,8.33
2022-11-12T23:26:48.627Z,8.62
2022-11-12T23:29:34.396Z,8.38
2022-11-12T23:32:20.032Z,8.22
2022-11-12T23:35:06.093Z,8.40
2022-11-12T23:37:54.914Z,8.71
2022-11-12T23:40:40.888Z,9.07
2022-11-12T23:43:26.882Z,8.96
2022-11-12T23:46:12.737Z,8.94
2022-11-12T23:48:58.662Z,8.43
2022-11-12T23:51:44.369Z,7.88
2022-11-12T23:54:30.368Z,8.12
2022-11-12T23:57:16.099Z,7.92
